Time;durP1;ratioP1;P1;durP2;ratioP2;P2;SDS_P1;SDS_P2;PMS_P1;PMS_P2;Temp;Humidity;BMP_temperature;BMP_pressure;BME280_temperature;BME280_humidity;BME280_pressure;Samples;Min_cycle;Max_cycle;Signal;HPM_P1;HPM_P2
2020/12/26 00:01:59;;;;;;;1.1;1;;;;;;;;;;;;;
2020/12/26 00:04:24;;;;;;;1.7;1;;;;;;;;;;;;;
2020/12/26 00:06:49;;;;;;;1;0.7;;;;;;;;;;;;;
2020/12/26 00:09:14;;;;;;;0.5;0.5;;;;;;;;;;;;;
2020/12/26 00:11:40;;;;;;;1.2;1;;;;;;;;;;;;;
2020/12/26 00:14:05;;;;;;;2.8;0.9;;;;;;;;;;;;;
2020/12/26 00:16:30;;;;;;;1.2;0.9;;;;;;;;;;;;;
2020/12/26 00:18:55;;;;;;;0.7;0.5;;;;;;;;;;;;;
2020/12/26 00:21:20;;;;;;;0.5;0.5;;;;;;;;;;;;;
2020/12/26 00:23:45;;;;;;;0.8;0.8;;;;;;;;;;;;;
2020/12/26 00:26:11;;;;;;;0.7;0.7;;;;;;;;;;;;;
2020/12/26 00:28:36;;;;;;;0.7;0.7;;;;;;;;;;;;;
2020/12/26 00:31:02;;;;;;;0.8;0.8;;;;;;;;;;;;;
2020/12/26 00:33:27;;;;;;;0.6;0.6;;;;;;;;;;;;;
2020/12/26 00:35:52;;;;;;;0.5;0.5;;;;;;;;;;;;;
2020/12/26 00:38:17;;;;;;;1;0.9;;;;;;;;;;;;;
2020/12/26 00:40:42;;;;;;;1;0.8;;;;;;;;;;;;;
2020/12/26 00:43:07;;;;;;;3.5;0.9;;;;;;;;;;;;;
2020/12/26 00:45:32;;;;;;;1.4;0.5;;;;;;;;;;;;;
2020/12/26 00:47:57;;;;;;;1.3;0.8;;;;;;;;;;;;;
2020/12/26 00:50:22;;;;;;;1.1;0.8;;;;;;;;;;;;;
2020/12/26 00:52:47;;;;;;;1.4;1;;;;;;;;;;;;;
2020/12/26 00:55:13;;;;;;;2;0.8;;;;;;;;;;;;;
2020/12/26 00:57:42;;;;;;;1.7;1.1;;;;;;;;;;;;;
2020/12/26 01:00:04;;;;;;;0.6;0.6;;;;;;;;;;;;;
2020/12/26 01:02:31;;;;;;;0.8;0.7;;;;;;;;;;;;;
2020/12/26 01:04:56;;;;;;;1.3;0.9;;;;;;;;;;;;;
2020/12/26 01:07:21;;;;;;;0.9;0.7;;;;;;;;;;;;;
2020/12/26 01:09:46;;;;;;;0.9;0.6;;;;;;;;;;;;;
2020/12/26 01:12:11;;;;;;;0.9;0.6;;;;;;;;;;;;;
2020/12/26 01:14:37;;;;;;;0.6;0.6;;;;;;;;;;;;;
2020/12/26 01:17:02;;;;;;;1.2;0.7;;;;;;;;;;;;;
2020/12/26 01:19:28;;;;;;;0.6;0.5;;;;;;;;;;;;;
2020/12/26 01:21:52;;;;;;;0.7;0.6;;;;;;;;;;;;;
2020/12/26 01:24:18;;;;;;;0.7;0.7;;;;;;;;;;;;;
2020/12/26 01:26:43;;;;;;;1.3;0.8;;;;;;;;;;;;;
2020/12/26 01:29:10;;;;;;;0.6;0.5;;;;;;;;;;;;;
2020/12/26 01:31:35;;;;;;;1.1;0.9;;;;;;;;;;;;;
2020/12/26 01:34:01;;;;;;;1.3;0.7;;;;;;;;;;;;;
2020/12/26 01:36:26;;;;;;;0.8;0.6;;;;;;;;;;;;;
2020/12/26 01:38:53;;;;;;;0.6;0.6;;;;;;;;;;;;;
2020/12/26 01:41:18;;;;;;;1.1;0.8;;;;;;;;;;;;;
2020/12/26 01:43:43;;;;;;;1;0.9;;;;;;;;;;;;;
2020/12/26 01:46:09;;;;;;;0.5;0.5;;;;;;;;;;;;;
2020/12/26 01:48:34;;;;;;;3.8;1.4;;;;;;;;;;;;;
2020/12/26 01:50:59;;;;;;;1.3;0.8;;;;;;;;;;;;;
2020/12/26 01:53:25;;;;;;;0.9;0.7;;;;;;;;;;;;;
2020/12/26 01:55:50;;;;;;;1.7;0.6;;;;;;;;;;;;;
2020/12/26 01:58:15;;;;;;;0.6;0.6;;;;;;;;;;;;;
2020/12/26 02:00:41;;;;;;;0.4;0.4;;;;;;;;;;;;;
2020/12/26 02:03:06;;;;;;;0.7;0.7;;;;;;;;;;;;;
2020/12/26 02:05:31;;;;;;;0.7;0.5;;;;;;;;;;;;;
2020/12/26 02:07:56;;;;;;;0.6;0.6;;;;;;;;;;;;;
2020/12/26 02:10:23;;;;;;;0.5;0.5;;;;;;;;;;;;;
2020/12/26 02:12:48;;;;;;;1.7;0.6;;;;;;;;;;;;;
2020/12/26 02:15:13;;;;;;;0.7;0.7;;;;;;;;;;;;;
2020/12/26 02:17:38;;;;;;;0.6;0.5;;;;;;;;;;;;;
2020/12/26 02:20:03;;;;;;;1;0.9;;;;;;;;;;;;;
2020/12/26 02:22:28;;;;;;;0.9;0.9;;;;;;;;;;;;;
2020/12/26 02:24:53;;;;;;;1.1;1;;;;;;;;;;;;;
2020/12/26 02:27:19;;;;;;;1.6;0.7;;;;;;;;;;;;;
2020/12/26 02:29:44;;;;;;;0.5;0.5;;;;;;;;;;;;;
2020/12/26 02:32:09;;;;;;;0.6;0.6;;;;;;;;;;;;;
2020/12/26 02:34:36;;;;;;;0.5;0.5;;;;;;;;;;;;;
2020/12/26 02:37:00;;;;;;;0.4;0.4;;;;;;;;;;;;;
2020/12/26 02:39:25;;;;;;;0.9;0.6;;;;;;;;;;;;;
2020/12/26 02:41:51;;;;;;;0.7;0.7;;;;;;;;;;;;;
2020/12/26 02:44:16;;;;;;;1.2;0.9;;;;;;;;;;;;;
2020/12/26 02:46:42;;;;;;;1.8;0.7;;;;;;;;;;;;;
2020/12/26 02:49:07;;;;;;;0.6;0.6;;;;;;;;;;;;;
2020/12/26 02:51:32;;;;;;;0.6;0.6;;;;;;;;;;;;;
2020/12/26 02:53:59;;;;;;;1.1;0.8;;;;;;;;;;;;;
2020/12/26 02:56:22;;;;;;;1.8;1;;;;;;;;;;;;;
2020/12/26 02:58:47;;;;;;;1.1;1;;;;;;;;;;;;;
2020/12/26 03:01:13;;;;;;;3.3;0.8;;;;;;;;;;;;;
2020/12/26 03:03:38;;;;;;;0.6;0.6;;;;;;;;;;;;;
2020/12/26 03:06:03;;;;;;;0.8;0.6;;;;;;;;;;;;;
2020/12/26 03:08:28;;;;;;;1.1;0.7;;;;;;;;;;;;;
2020/12/26 03:10:53;;;;;;;0.8;0.6;;;;;;;;;;;;;
2020/12/26 03:13:18;;;;;;;0.7;0.6;;;;;;;;;;;;;
2020/12/26 03:15:43;;;;;;;2.1;1.2;;;;;;;;;;;;;
2020/12/26 03:18:08;;;;;;;1.3;0.8;;;;;;;;;;;;;
2020/12/26 03:20:34;;;;;;;0.7;0.6;;;;;;;;;;;;;
2020/12/26 03:22:59;;;;;;;0.6;0.6;;;;;;;;;;;;;
2020/12/26 03:25:24;;;;;;;1.8;1.1;;;;;;;;;;;;;
2020/12/26 03:27:49;;;;;;;0.8;0.6;;;;;;;;;;;;;
2020/12/26 03:30:14;;;;;;;1.2;1.1;;;;;;;;;;;;;
2020/12/26 03:32:39;;;;;;;0.8;0.8;;;;;;;;;;;;;
2020/12/26 03:35:05;;;;;;;1.9;0.9;;;;;;;;;;;;;
2020/12/26 03:37:30;;;;;;;0.6;0.6;;;;;;;;;;;;;
2020/12/26 03:39:56;;;;;;;0.8;0.8;;;;;;;;;;;;;
2020/12/26 03:42:21;;;;;;;0.6;0.5;;;;;;;;;;;;;
2020/12/26 03:44:47;;;;;;;0.8;0.8;;;;;;;;;;;;;
2020/12/26 03:47:12;;;;;;;1.3;1.1;;;;;;;;;;;;;
2020/12/26 03:49:39;;;;;;;2.1;1;;;;;;;;;;;;;
2020/12/26 03:52:04;;;;;;;2.1;0.8;;;;;;;;;;;;;
2020/12/26 03:54:29;;;;;;;3.4;1.1;;;;;;;;;;;;;
2020/12/26 03:56:56;;;;;;;1.1;1;;;;;;;;;;;;;
2020/12/26 03:59:21;;;;;;;3.7;1;;;;;;;;;;;;;
2020/12/26 04:02:30;;;;;;;2;0.9;;;;;;;0.29;81.85352;942.6516;;;;
2020/12/26 04:04:55;;;;;;;0.9;0.7;;;;;;;0.48;81.38672;942.6774;;;;
2020/12/26 04:07:22;;;;;;;0.8;0.8;;;;;;;0.54;82.23535;942.7543;;;;
2020/12/26 04:09:47;;;;;;;0.7;0.7;;;;;;;0.46;82.97852;942.8518;;;;
2020/12/26 04:12:14;;;;;;;0.9;0.7;;;;;;;0.4;82.82129;942.871;;;;
2020/12/26 04:14:39;;;;;;;2.8;0.9;;;;;;;0.29;82.85742;942.8793;;;;
2020/12/26 04:17:06;;;;;;;0.6;0.6;;;;;;;0.26;83.26465;942.9152;;;;
2020/12/26 04:19:31;;;;;;;0.8;0.8;;;;;;;0.17;81.71777;942.9425;;;;
2020/12/26 04:21:59;;;;;;;0.8;0.8;;;;;;;0.3;81.0752;942.9826;;;;
2020/12/26 04:24:24;;;;;;;1.5;0.9;;;;;;;0.26;81.24512;943.0239;;;;
2020/12/26 04:26:51;;;;;;;0.6;0.6;;;;;;;0.29;82.12109;943.0146;;;;
2020/12/26 04:29:16;;;;;;;0.8;0.5;;;;;;;0.43;81.52344;943.0179;;;;
2020/12/26 04:31:41;;;;;;;0.6;0.6;;;;;;;0.48;80.69727;942.9612;;;;
2020/12/26 04:34:09;;;;;;;1.1;0.7;;;;;;;0.34;81.06152;943.1036;;;;
2020/12/26 04:36:34;;;;;;;1.7;1.1;;;;;;;0.19;81.57813;943.0331;;;;
2020/12/26 04:39:00;;;;;;;2;0.8;;;;;;;0.41;81.10742;943.0467;;;;
2020/12/26 04:41:25;;;;;;;1;0.9;;;;;;;0.32;81.19043;943.0608;;;;
2020/12/26 04:43:50;;;;;;;1.6;1.2;;;;;;;0.26;81.43652;942.9653;;;;
2020/12/26 04:46:16;;;;;;;1;0.7;;;;;;;0.3;82.22363;942.858;;;;
2020/12/26 04:48:41;;;;;;;0.7;0.7;;;;;;;0.53;81.90137;943.0564;;;;
2020/12/26 04:51:06;;;;;;;0.9;0.7;;;;;;;0.49;80.95508;943.1295;;;;
2020/12/26 04:53:31;;;;;;;1.2;0.9;;;;;;;0.45;81.20313;943.1272;;;;
2020/12/26 04:55:56;;;;;;;0.7;0.7;;;;;;;0.44;81.56934;943.0606;;;;
2020/12/26 04:58:21;;;;;;;1;0.9;;;;;;;0.17;82.82129;943.2394;;;;
2020/12/26 05:00:51;;;;;;;1.2;0.9;;;;;;;0.18;82.95703;943.2509;;;;
2020/12/26 05:03:17;;;;;;;1;0.7;;;;;;;0.24;83.23633;943.1788;;;;
2020/12/26 05:05:45;;;;;;;0.7;0.7;;;;;;;0.2;83.0625;943.2955;;;;
2020/12/26 05:08:07;;;;;;;0.6;0.6;;;;;;;0.05;84.06836;943.3008;;;;
2020/12/26 05:10:34;;;;;;;1.2;0.8;;;;;;;-0.05;84.66113;943.2518;;;;
2020/12/26 05:12:59;;;;;;;0.7;0.7;;;;;;;-0.1;84.9082;943.3369;;;;
2020/12/26 05:15:24;;;;;;;1.2;1.1;;;;;;;-0.1;85.39648;943.3309;;;;
2020/12/26 05:17:49;;;;;;;2.1;1.5;;;;;;;-0.05;85.37207;943.2885;;;;
2020/12/26 05:20:16;;;;;;;1.3;0.9;;;;;;;-0.25;85.32031;943.351;;;;
2020/12/26 05:22:41;;;;;;;0.7;0.7;;;;;;;-0.12;84.60156;943.2274;;;;
2020/12/26 05:25:06;;;;;;;1.7;1.2;;;;;;;-0.41;85.12305;943.3419;;;;
2020/12/26 05:27:31;;;;;;;2.1;1.3;;;;;;;-0.36;84.97754;943.3467;;;;
2020/12/26 05:29:57;;;;;;;2.1;0.9;;;;;;;0.03;84.36328;943.3362;;;;
2020/12/26 05:32:23;;;;;;;0.9;0.8;;;;;;;-0.23;83.82324;943.3219;;;;
2020/12/26 05:34:47;;;;;;;0.7;0.7;;;;;;;-0.2;82.96191;943.3044;;;;
2020/12/26 05:37:14;;;;;;;1.1;0.8;;;;;;;-0.36;82.85059;943.3533;;;;
2020/12/26 05:39:39;;;;;;;1.5;0.6;;;;;;;-0.13;81.61523;943.3834;;;;
2020/12/26 05:42:04;;;;;;;1;0.8;;;;;;;-0.01;81.19238;943.3636;;;;
2020/12/26 05:44:30;;;;;;;0.8;0.8;;;;;;;0.14;80.21973;943.4424;;;;
2020/12/26 05:46:55;;;;;;;0.5;0.5;;;;;;;0.03;80.53125;943.4506;;;;
2020/12/26 05:49:20;;;;;;;1.9;0.6;;;;;;;-0.04;80.33008;943.568;;;;
2020/12/26 05:51:45;;;;;;;1.4;1.1;;;;;;;-0.03;79.61914;943.4705;;;;
2020/12/26 05:54:10;;;;;;;1;0.9;;;;;;;0.05;79.36523;943.5989;;;;
2020/12/26 05:56:37;;;;;;;1;0.9;;;;;;;0.22;79.4082;943.6512;;;;
2020/12/26 05:59:02;;;;;;;0.9;0.8;;;;;;;0.2;78.68066;943.6583;;;;
2020/12/26 06:01:27;;;;;;;3.2;0.7;;;;;;;0.06;79.13574;943.6147;;;;
2020/12/26 06:03:55;;;;;;;0.7;0.7;;;;;;;0.21;78.83789;943.7171;;;;
2020/12/26 06:06:21;;;;;;;0.9;0.8;;;;;;;0.04;79.88867;943.6089;;;;
2020/12/26 06:08:46;;;;;;;1.1;1;;;;;;;0.05;79.02148;943.6931;;;;
2020/12/26 06:11:12;;;;;;;0.8;0.7;;;;;;;0.05;79.53418;943.8052;;;;
2020/12/26 06:13:36;;;;;;;1.2;1.1;;;;;;;-0.02;79.80078;943.9183;;;;
2020/12/26 06:16:02;;;;;;;1.3;1;;;;;;;0.03;79.08496;943.9925;;;;
2020/12/26 06:18:27;;;;;;;0.9;0.7;;;;;;;-0.03;79.58496;943.9778;;;;
2020/12/26 06:20:52;;;;;;;0.5;0.5;;;;;;;0.11;79.54395;943.9781;;;;
2020/12/26 06:23:19;;;;;;;0.7;0.5;;;;;;;0.04;78.875;944.0245;;;;
2020/12/26 06:25:45;;;;;;;1.2;0.9;;;;;;;-0.08;79.97754;944.0368;;;;
2020/12/26 06:28:10;;;;;;;0.7;0.7;;;;;;;-0.08;79.81055;944.1386;;;;
2020/12/26 06:30:35;;;;;;;1.5;1.2;;;;;;;0.1;79.00879;944.1344;;;;
2020/12/26 06:33:00;;;;;;;1.1;1;;;;;;;0.12;80.26074;944.1262;;;;
2020/12/26 06:35:25;;;;;;;1.2;0.8;;;;;;;0.45;79.01758;944.0952;;;;
2020/12/26 06:37:50;;;;;;;0.9;0.8;;;;;;;0.64;77.71582;944.0938;;;;
2020/12/26 06:40:15;;;;;;;18.8;1;;;;;;;0.43;79.18359;944.1094;;;;
2020/12/26 06:42:41;;;;;;;0.7;0.7;;;;;;;0.71;77.54883;944.0654;;;;
2020/12/26 06:45:06;;;;;;;1.4;1.1;;;;;;;0.76;77.2002;944.061;;;;
2020/12/26 06:47:31;;;;;;;1.4;1.1;;;;;;;0.73;77.41895;944.0173;;;;
2020/12/26 06:49:56;;;;;;;1.3;0.9;;;;;;;0.83;77.38086;944.0552;;;;
2020/12/26 06:52:21;;;;;;;4;2.4;;;;;;;0.66;77.23828;943.9911;;;;
2020/12/26 06:54:48;;;;;;;1.1;0.9;;;;;;;0.17;78.65332;943.9776;;;;
2020/12/26 06:57:13;;;;;;;0.9;0.7;;;;;;;0.32;79.8418;944.0683;;;;
2020/12/26 06:59:39;;;;;;;1.7;1.3;;;;;;;0.43;79.1709;944.0464;;;;
2020/12/26 07:02:05;;;;;;;0.7;0.7;;;;;;;0.29;79.70215;944.06;;;;
2020/12/26 07:04:30;;;;;;;2.2;1.2;;;;;;;0.4;80.35645;944.0575;;;;
2020/12/26 07:06:59;;;;;;;1.8;1.1;;;;;;;0.41;79.10156;944.044;;;;
2020/12/26 07:09:23;;;;;;;0.7;0.7;;;;;;;0.5;79.15039;944.0168;;;;
2020/12/26 07:11:48;;;;;;;1.6;1.2;;;;;;;0.44;79.39551;944.105;;;;
2020/12/26 07:14:15;;;;;;;0.8;0.8;;;;;;;0.57;79.62012;944.0917;;;;
2020/12/26 07:16:40;;;;;;;1.3;1.1;;;;;;;0.28;80.36816;944.1731;;;;
2020/12/26 07:19:07;;;;;;;1.2;1.1;;;;;;;0.15;80.39941;944.1747;;;;
2020/12/26 07:21:32;;;;;;;0.8;0.7;;;;;;;0.29;80.77246;944.1392;;;;
2020/12/26 07:23:57;;;;;;;0.9;0.9;;;;;;;0.44;80.5459;944.1836;;;;
2020/12/26 07:26:24;;;;;;;0.7;0.6;;;;;;;0.27;80.19922;944.2133;;;;
2020/12/26 07:28:49;;;;;;;1.2;1.1;;;;;;;0.19;80.87598;944.2499;;;;
2020/12/26 07:31:14;;;;;;;1.5;1.2;;;;;;;-0.18;81.44922;944.2319;;;;
2020/12/26 07:33:47;;;;;;;1.9;1.1;;;;;;;0.1;81.62598;944.1717;;;;
2020/12/26 07:36:13;;;;;;;1;0.9;;;;;;;0;81.86426;944.2335;;;;
2020/12/26 07:38:37;;;;;;;1;0.8;;;;;;;-0.04;81.51074;944.2079;;;;
2020/12/26 07:41:03;;;;;;;1.4;0.9;;;;;;;-0.07;81.58301;944.1633;;;;
2020/12/26 07:43:29;;;;;;;2.1;1.3;;;;;;;-0.16;81.6084;944.2026;;;;
2020/12/26 07:45:54;;;;;;;1.2;1.1;;;;;;;-0.21;81.87793;944.2802;;;;
2020/12/26 07:48:21;;;;;;;1;0.9;;;;;;;-0.54;82.18066;944.2802;;;;
2020/12/26 07:50:44;;;;;;;2;1.1;;;;;;;-0.46;82.71973;944.2626;;;;
2020/12/26 07:53:13;;;;;;;1.5;1;;;;;;;-0.36;82.50488;944.2946;;;;
2020/12/26 07:55:37;;;;;;;2.2;0.9;;;;;;;-0.35;81.80762;944.3516;;;;
2020/12/26 07:58:03;;;;;;;1.5;1;;;;;;;-0.25;81.93652;944.4934;;;;
2020/12/26 08:00:28;;;;;;;2.5;1;;;;;;;-0.15;81.07813;944.5968;;;;
2020/12/26 08:02:54;;;;;;;0.7;0.7;;;;;;;0.07;80.67383;944.6447;;;;
2020/12/26 08:05:19;;;;;;;1.8;1;;;;;;;0.07;80.19629;944.6534;;;;
2020/12/26 08:07:44;;;;;;;1.2;0.9;;;;;;;-0.19;81.03516;944.6141;;;;
2020/12/26 08:10:11;;;;;;;1.5;1.2;;;;;;;0.01;81.09766;944.7319;;;;
2020/12/26 08:12:35;;;;;;;2.8;1.5;;;;;;;0.13;80.27344;944.817;;;;
2020/12/26 08:15:02;;;;;;;6.3;1.5;;;;;;;-0.05;81.00781;944.9065;;;;
2020/12/26 08:17:31;;;;;;;1.6;1.2;;;;;;;-0.14;81.19043;944.9771;;;;
2020/12/26 08:20:04;;;;;;;1.1;0.9;;;;;;;-0.23;81.0957;944.9338;;;;
2020/12/26 08:22:31;;;;;;;1.1;1;;;;;;;-0.05;80.60645;945.0051;;;;
2020/12/26 08:24:53;;;;;;;2.4;1;;;;;;;-0.49;81.27832;944.9841;;;;
2020/12/26 08:27:18;;;;;;;1.1;1;;;;;;;-0.1;80.69629;944.9989;;;;
2020/12/26 08:29:43;;;;;;;1.7;1.1;;;;;;;-0.16;80.11816;944.9674;;;;
2020/12/26 08:32:08;;;;;;;0.5;0.5;;;;;;;-0.05;79.93652;944.8695;;;;
2020/12/26 08:34:34;;;;;;;0.8;0.8;;;;;;;0.03;79.33008;944.9993;;;;
2020/12/26 08:36:59;;;;;;;1.6;1;;;;;;;0.01;78.41113;944.9836;;;;
2020/12/26 08:39:24;;;;;;;1.1;1;;;;;;;-0.11;79.38086;945.0056;;;;
2020/12/26 08:41:51;;;;;;;1.4;1;;;;;;;0.02;79.87207;944.9608;;;;
2020/12/26 08:44:16;;;;;;;1.4;1.1;;;;;;;0.12;79.2334;945.0272;;;;
2020/12/26 08:46:41;;;;;;;0.7;0.7;;;;;;;0.09;79.62988;945.0308;;;;
2020/12/26 08:49:07;;;;;;;1.8;1.2;;;;;;;0.34;79.02148;944.9285;;;;
2020/12/26 08:51:33;;;;;;;1.6;0.7;;;;;;;0.52;77.92676;944.986;;;;
2020/12/26 08:53:59;;;;;;;1.3;1;;;;;;;0.46;77.65918;944.9747;;;;
2020/12/26 08:56:24;;;;;;;1.4;1.2;;;;;;;0.44;77.74609;945.0491;;;;
2020/12/26 08:58:49;;;;;;;1.4;1.1;;;;;;;0.41;77.88477;945.0488;;;;
2020/12/26 09:01:14;;;;;;;2;1.2;;;;;;;0.64;77.34766;945.0435;;;;
2020/12/26 09:03:40;;;;;;;1.1;1;;;;;;;0.36;77.98633;945.0014;;;;
2020/12/26 09:06:04;;;;;;;1.3;1.1;;;;;;;0.51;77.93652;945.0098;;;;
2020/12/26 09:08:31;;;;;;;1.2;1.1;;;;;;;0.59;77.90723;945.0167;;;;
2020/12/26 09:10:56;;;;;;;2.6;1.3;;;;;;;0.8;77.53223;944.9778;;;;
2020/12/26 09:13:21;;;;;;;1.2;1;;;;;;;0.85;76.75;945.0519;;;;
2020/12/26 09:15:46;;;;;;;1.7;1;;;;;;;0.98;76.83984;945.0044;;;;
2020/12/26 09:18:11;;;;;;;1.4;1;;;;;;;0.97;76.80273;945.0323;;;;
2020/12/26 09:20:38;;;;;;;1.2;1.1;;;;;;;0.96;75.65137;944.9528;;;;
2020/12/26 09:23:03;;;;;;;2.8;1.2;;;;;;;0.97;76.44727;944.9903;;;;
2020/12/26 09:25:28;;;;;;;1.3;1.2;;;;;;;1.29;75.36426;945.0867;;;;
2020/12/26 09:27:53;;;;;;;2;1.3;;;;;;;1.4;74.4248;945.1656;;;;
2020/12/26 09:30:18;;;;;;;2.5;1.6;;;;;;;1.65;73.69531;945.2083;;;;
2020/12/26 09:32:43;;;;;;;2.3;1.3;;;;;;;2.09;72.17188;945.2353;;;;
2020/12/26 09:35:08;;;;;;;1.8;1.1;;;;;;;2.14;71.88867;945.223;;;;
2020/12/26 09:37:34;;;;;;;1.5;1.3;;;;;;;2.18;71.10059;945.2653;;;;
2020/12/26 09:39:59;;;;;;;3;1.2;;;;;;;1.99;71.46289;945.296;;;;
2020/12/26 09:42:26;;;;;;;1.7;1.4;;;;;;;2.1;69.94531;945.2497;;;;
2020/12/26 09:44:51;;;;;;;1.5;0.8;;;;;;;1.8;70.59961;945.2578;;;;
2020/12/26 09:47:16;;;;;;;2.3;1.8;;;;;;;1.93;71.38281;945.2274;;;;
2020/12/26 09:49:42;;;;;;;1.3;1.2;;;;;;;1.98;70.75293;945.1608;;;;
2020/12/26 09:52:07;;;;;;;3.1;1.8;;;;;;;2.02;70.35742;945.1003;;;;
2020/12/26 09:54:32;;;;;;;1.6;1.3;;;;;;;1.64;70.75293;945.09;;;;
2020/12/26 09:56:57;;;;;;;2.9;1.2;;;;;;;1.76;71.19727;944.9832;;;;
2020/12/26 09:59:22;;;;;;;2.9;1.5;;;;;;;1.8;71.25;944.8979;;;;
2020/12/26 10:01:48;;;;;;;1.7;0.9;;;;;;;1.94;71.10449;944.8318;;;;
2020/12/26 10:04:13;;;;;;;2.2;1.6;;;;;;;1.62;70.26953;944.8879;;;;
2020/12/26 10:06:38;;;;;;;1.5;1.2;;;;;;;1.59;71.70703;944.8361;;;;
2020/12/26 10:09:03;;;;;;;1.1;0.8;;;;;;;1.25;71.82813;944.7924;;;;
2020/12/26 10:11:31;;;;;;;3.7;1.8;;;;;;;1.32;72.26465;944.7555;;;;
2020/12/26 10:13:55;;;;;;;1.1;1;;;;;;;1.38;71.79492;944.7625;;;;
2020/12/26 10:16:21;;;;;;;1.2;1.1;;;;;;;1.44;71.17773;944.7902;;;;
2020/12/26 10:18:46;;;;;;;1.4;1.1;;;;;;;1.46;70.73535;944.7986;;;;
2020/12/26 10:21:12;;;;;;;2.5;0.8;;;;;;;1.61;70.39063;944.7612;;;;
2020/12/26 10:23:37;;;;;;;1.2;0.8;;;;;;;1.59;69.8623;944.7456;;;;
2020/12/26 10:26:04;;;;;;;2.2;1.1;;;;;;;1.3;70.85352;944.7277;;;;
2020/12/26 10:28:29;;;;;;;1.6;1.4;;;;;;;1.17;69.77148;944.6082;;;;
2020/12/26 10:31:00;;;;;;;0.9;0.9;;;;;;;0.44;70.36328;944.5545;;;;
2020/12/26 10:33:23;;;;;;;3.4;0.9;;;;;;;0.35;71.58496;944.5201;;;;
2020/12/26 10:35:48;;;;;;;3.3;1.2;;;;;;;0.23;71.87891;944.3851;;;;
2020/12/26 10:38:13;;;;;;;3.1;0.9;;;;;;;0.11;72.25879;944.3928;;;;
2020/12/26 10:40:39;;;;;;;2.3;1.4;;;;;;;0.18;72.31543;944.291;;;;
2020/12/26 10:43:04;;;;;;;2.5;0.9;;;;;;;0.11;72.50195;944.2413;;;;
2020/12/26 10:45:30;;;;;;;0.7;0.7;;;;;;;0.17;72.64648;944.1892;;;;
2020/12/26 10:47:55;;;;;;;1.7;1;;;;;;;0;72.71875;944.1771;;;;
2020/12/26 10:50:25;;;;;;;1;0.9;;;;;;;0.04;72.53613;944.13;;;;
2020/12/26 10:52:50;;;;;;;0.6;0.6;;;;;;;0.25;71.74512;944.0248;;;;
2020/12/26 10:55:17;;;;;;;1.3;1.2;;;;;;;0.19;71.68164;944.0829;;;;
2020/12/26 10:57:42;;;;;;;2.4;1;;;;;;;0.36;70.50684;944.0204;;;;
2020/12/26 11:00:08;;;;;;;1.1;0.9;;;;;;;0.49;70.06934;944.0025;;;;
2020/12/26 11:02:33;;;;;;;2.2;1.3;;;;;;;0.73;69.60938;944.0009;;;;
2020/12/26 11:04:58;;;;;;;1;0.9;;;;;;;0.91;69.4375;943.9852;;;;
2020/12/26 11:07:23;;;;;;;0.6;0.6;;;;;;;1.1;69.13379;943.9659;;;;
2020/12/26 11:09:49;;;;;;;0.8;0.8;;;;;;;1.16;68.81836;943.9799;;;;
2020/12/26 11:12:14;;;;;;;1.1;1;;;;;;;0.89;69.01074;943.9481;;;;
2020/12/26 11:14:39;;;;;;;6.4;1.2;;;;;;;0.64;69.48242;943.8721;;;;
2020/12/26 11:17:06;;;;;;;1.4;1;;;;;;;0.84;68.64453;943.7438;;;;
2020/12/26 11:19:32;;;;;;;0.9;0.8;;;;;;;0.87;67.55469;943.8088;;;;
2020/12/26 11:21:59;;;;;;;1;0.9;;;;;;;0.84;67.38184;943.7952;;;;
2020/12/26 11:24:23;;;;;;;1.3;1.1;;;;;;;1.02;67.2002;943.7687;;;;
2020/12/26 11:26:51;;;;;;;1.2;0.8;;;;;;;1;67.55469;943.7676;;;;
2020/12/26 11:29:16;;;;;;;1.2;1;;;;;;;1.13;67.18262;943.742;;;;
2020/12/26 11:31:41;;;;;;;1;0.8;;;;;;;1.25;66.61035;943.7199;;;;
2020/12/26 11:34:11;;;;;;;4;1.3;;;;;;;1.45;66.25977;943.7266;;;;
2020/12/26 11:36:39;;;;;;;1.1;0.8;;;;;;;1.38;65.72656;943.7064;;;;
2020/12/26 11:39:04;;;;;;;0.6;0.6;;;;;;;1.44;65.54492;943.7477;;;;
2020/12/26 11:41:30;;;;;;;0.8;0.5;;;;;;;1.51;64.75098;943.5919;;;;
2020/12/26 11:43:56;;;;;;;0.6;0.6;;;;;;;1.62;64.95801;943.6689;;;;
2020/12/26 11:46:23;;;;;;;1.3;0.7;;;;;;;1.91;63.74707;943.6038;;;;
2020/12/26 11:48:48;;;;;;;1;0.9;;;;;;;2.16;62.72266;943.58;;;;
2020/12/26 11:51:13;;;;;;;0.4;0.4;;;;;;;2.22;61.87988;943.5255;;;;
2020/12/26 11:53:38;;;;;;;0.7;0.6;;;;;;;2.39;61.01855;943.4292;;;;
2020/12/26 11:56:04;;;;;;;2;0.9;;;;;;;2.75;60.36719;943.4622;;;;
2020/12/26 11:58:29;;;;;;;1.2;1;;;;;;;2.69;59.89844;943.5255;;;;
2020/12/26 12:00:55;;;;;;;0.7;0.6;;;;;;;2.97;60.00391;943.4904;;;;
2020/12/26 12:03:20;;;;;;;0.7;0.7;;;;;;;3.25;59.89746;943.4754;;;;
2020/12/26 12:05:46;;;;;;;0.7;0.6;;;;;;;3.13;58.44434;943.4659;;;;
2020/12/26 12:08:10;;;;;;;1.4;1;;;;;;;3.27;58.08105;943.4653;;;;
2020/12/26 12:10:35;;;;;;;1.1;1;;;;;;;3.02;59.89941;943.4899;;;;
2020/12/26 12:13:01;;;;;;;1.4;0.6;;;;;;;3.27;59.45215;943.4671;;;;
2020/12/26 12:15:26;;;;;;;0.9;0.8;;;;;;;3.43;58.29395;943.4073;;;;
2020/12/26 12:17:53;;;;;;;1.1;0.9;;;;;;;3.41;59.58301;943.373;;;;
2020/12/26 12:20:18;;;;;;;1.1;0.8;;;;;;;3.68;58.49805;943.3572;;;;
2020/12/26 12:22:47;;;;;;;2.1;0.9;;;;;;;3.79;57.92773;943.3376;;;;
2020/12/26 12:25:12;;;;;;;1;0.9;;;;;;;3.95;57.81543;943.3969;;;;
2020/12/26 12:27:37;;;;;;;0.8;0.7;;;;;;;3.85;57.59961;943.4523;;;;
2020/12/26 12:30:03;;;;;;;1;0.8;;;;;;;4.13;56.88477;943.4678;;;;
2020/12/26 12:32:28;;;;;;;0.8;0.7;;;;;;;3.96;56.48926;943.4753;;;;
2020/12/26 12:34:55;;;;;;;0.9;0.7;;;;;;;3.97;57.61621;943.4742;;;;
2020/12/26 12:37:20;;;;;;;2.1;1;;;;;;;3.69;58.94824;943.5137;;;;
2020/12/26 12:39:45;;;;;;;1.7;0.9;;;;;;;3.46;58.33203;943.5095;;;;
2020/12/26 12:42:11;;;;;;;1.5;0.8;;;;;;;3.45;59.35352;943.5225;;;;
2020/12/26 12:44:36;;;;;;;2.2;0.8;;;;;;;3.32;59.45801;943.5676;;;;
2020/12/26 12:47:03;;;;;;;0.8;0.8;;;;;;;2.96;60.01367;943.5302;;;;
2020/12/26 12:49:28;;;;;;;1.1;0.9;;;;;;;2.72;60.02441;943.565;;;;
2020/12/26 12:51:56;;;;;;;1;0.8;;;;;;;2.62;61.01855;943.565;;;;
2020/12/26 12:54:22;;;;;;;3.6;0.8;;;;;;;2.28;60.2207;943.5153;;;;
2020/12/26 12:56:47;;;;;;;0.6;0.6;;;;;;;2.46;61.01953;943.4772;;;;
2020/12/26 12:59:12;;;;;;;0.5;0.5;;;;;;;2.42;61.59473;943.4429;;;;
2020/12/26 13:01:37;;;;;;;1.1;0.7;;;;;;;1.96;63.35352;943.4904;;;;
2020/12/26 13:04:02;;;;;;;0.8;0.7;;;;;;;2.15;63.5166;943.5041;;;;
2020/12/26 13:06:27;;;;;;;0.5;0.5;;;;;;;1.87;65.42188;943.5226;;;;
2020/12/26 13:08:54;;;;;;;1;0.8;;;;;;;2.1;64.63867;943.4667;;;;
2020/12/26 13:11:20;;;;;;;2.6;1.3;;;;;;;2.09;63.20508;943.3942;;;;
2020/12/26 13:13:44;;;;;;;1.8;0.8;;;;;;;1.91;63.7373;943.3434;;;;
2020/12/26 13:16:09;;;;;;;0.7;0.7;;;;;;;1.8;63.6875;943.3444;;;;
2020/12/26 13:18:35;;;;;;;0.5;0.5;;;;;;;1.84;63.64941;943.38;;;;
2020/12/26 13:21:00;;;;;;;0.9;0.5;;;;;;;1.76;64.46387;943.476;;;;
2020/12/26 13:23:25;;;;;;;0.5;0.5;;;;;;;1.75;64.38379;943.4448;;;;
2020/12/26 13:25:50;;;;;;;0.8;0.7;;;;;;;1.71;64.5459;943.4689;;;;
2020/12/26 13:28:16;;;;;;;0.5;0.5;;;;;;;1.4;64.28711;943.5229;;;;
2020/12/26 13:30:42;;;;;;;0.4;0.4;;;;;;;1.58;65.05273;943.4989;;;;
2020/12/26 13:33:07;;;;;;;1.4;0.6;;;;;;;1.74;65.2666;943.5596;;;;
2020/12/26 13:35:32;;;;;;;4;1;;;;;;;1.73;64.91797;943.6033;;;;
2020/12/26 13:37:57;;;;;;;1;0.8;;;;;;;1.87;64.40234;943.6049;;;;
2020/12/26 13:40:22;;;;;;;1.4;0.9;;;;;;;1.85;64.45508;943.5954;;;;
2020/12/26 13:42:47;;;;;;;1.5;0.7;;;;;;;1.8;64.54785;943.5595;;;;
2020/12/26 13:45:14;;;;;;;2.2;0.8;;;;;;;1.87;65.02832;943.5783;;;;
2020/12/26 13:47:39;;;;;;;1.5;0.9;;;;;;;1.18;65.77246;943.5784;;;;
2020/12/26 13:50:05;;;;;;;1;0.8;;;;;;;1.44;66.97559;943.5891;;;;
2020/12/26 13:52:31;;;;;;;0.4;0.4;;;;;;;1.52;65.71191;943.5789;;;;
2020/12/26 13:55:08;;;;;;;0.8;0.6;;;;;;;1.45;65.1543;943.6616;;;;
2020/12/26 13:57:29;;;;;;;1.5;1.1;;;;;;;1.59;65.33398;943.6344;;;;
2020/12/26 13:59:55;;;;;;;0.8;0.7;;;;;;;1.58;65.19824;943.6323;;;;
2020/12/26 14:02:20;;;;;;;1.3;1.2;;;;;;;0.96;66.41992;943.6569;;;;
2020/12/26 14:04:45;;;;;;;3.2;1.8;;;;;;;1.16;67.71289;943.7186;;;;
2020/12/26 14:07:10;;;;;;;1.9;1.1;;;;;;;1.33;65.6748;943.8005;;;;
2020/12/26 14:09:36;;;;;;;1;0.8;;;;;;;1.13;65.86523;943.8245;;;;
2020/12/26 14:12:01;;;;;;;1;0.9;;;;;;;1.23;65.99316;943.7361;;;;
2020/12/26 14:14:27;;;;;;;3.4;1.2;;;;;;;1.44;66.13672;943.7402;;;;
2020/12/26 14:16:52;;;;;;;0.9;0.8;;;;;;;1.4;65.22559;943.7255;;;;
2020/12/26 14:19:19;;;;;;;1.3;0.9;;;;;;;1.34;64.46777;943.7225;;;;
2020/12/26 14:21:44;;;;;;;1.6;1.3;;;;;;;1.3;66.14941;943.6692;;;;
2020/12/26 14:24:10;;;;;;;1.7;1.1;;;;;;;1.52;66.50586;943.6564;;;;
2020/12/26 14:26:35;;;;;;;2.6;1.2;;;;;;;1.41;65.88672;943.6096;;;;
2020/12/26 14:29:02;;;;;;;1.3;1;;;;;;;1.57;66.93945;943.5753;;;;
2020/12/26 14:31:27;;;;;;;2.3;0.9;;;;;;;1.81;64.98633;943.562;;;;
2020/12/26 14:33:54;;;;;;;1;0.7;;;;;;;1.88;63.51953;943.4478;;;;
2020/12/26 14:36:19;;;;;;;0.8;0.6;;;;;;;1.93;64.0293;943.3865;;;;
2020/12/26 14:38:44;;;;;;;1.1;1;;;;;;;1.92;63.3252;943.395;;;;
2020/12/26 14:41:09;;;;;;;3.3;0.9;;;;;;;1.74;62.95117;943.3878;;;;
2020/12/26 14:43:37;;;;;;;0.6;0.6;;;;;;;1.75;64.95605;943.4514;;;;
2020/12/26 14:46:01;;;;;;;0.8;0.6;;;;;;;1.79;64.94922;943.4412;;;;
2020/12/26 14:48:27;;;;;;;1;0.9;;;;;;;1.94;64.5918;943.3886;;;;
2020/12/26 14:50:52;;;;;;;0.6;0.6;;;;;;;1.77;65.50684;943.3002;;;;
2020/12/26 14:53:21;;;;;;;1.1;1;;;;;;;1.58;65.8125;943.4283;;;;
2020/12/26 14:55:47;;;;;;;0.8;0.8;;;;;;;1.82;64.8877;943.3348;;;;
2020/12/26 14:58:12;;;;;;;0.8;0.6;;;;;;;1.81;64.6748;943.3762;;;;
2020/12/26 15:00:43;;;;;;;2.4;1.3;;;;;;;1.78;64.70313;943.3719;;;;
2020/12/26 15:03:09;;;;;;;0.6;0.6;;;;;;;1.83;64.28418;943.3903;;;;
2020/12/26 15:05:33;;;;;;;1.3;1.2;;;;;;;1.85;65.58496;943.3287;;;;
2020/12/26 15:08:01;;;;;;;1.3;1.2;;;;;;;1.72;66.33691;943.3915;;;;
2020/12/26 15:10:26;;;;;;;2.1;1.7;;;;;;;1.47;68.27637;943.4203;;;;
2020/12/26 15:12:52;;;;;;;2;1.2;;;;;;;1.46;68.7793;943.4872;;;;
2020/12/26 15:15:16;;;;;;;2.9;1.4;;;;;;;1.46;69.05859;943.4725;;;;
2020/12/26 15:17:45;;;;;;;1;0.9;;;;;;;1.48;68.63672;943.4311;;;;
2020/12/26 15:20:11;;;;;;;2;0.9;;;;;;;1.51;67.98145;943.4381;;;;
2020/12/26 15:22:36;;;;;;;2.8;1.4;;;;;;;1.53;67.50391;943.3148;;;;
2020/12/26 15:25:01;;;;;;;1.9;1.5;;;;;;;1.34;67.29492;943.3567;;;;
2020/12/26 15:27:26;;;;;;;2.2;1.6;;;;;;;1.01;69.03906;943.3328;;;;
2020/12/26 15:29:51;;;;;;;4.5;2.3;;;;;;;1.05;69.22559;943.4156;;;;
2020/12/26 15:32:21;;;;;;;1.5;1;;;;;;;0.81;69.97852;943.4104;;;;
2020/12/26 15:34:45;;;;;;;3.1;1.2;;;;;;;0.78;70.4873;943.299;;;;
2020/12/26 15:37:10;;;;;;;1.4;1;;;;;;;0.77;70.47461;943.2856;;;;
2020/12/26 15:39:36;;;;;;;1.2;1;;;;;;;0.71;70.29785;943.3211;;;;
2020/12/26 15:42:01;;;;;;;3.3;2;;;;;;;0.37;72.55957;943.291;;;;